Time;durP1;ratioP1;P1;durP2;ratioP2;P2;SDS_P1;SDS_P2;PMS_P1;PMS_P2;Temp;Humidity;BMP_temperature;BMP_pressure;BME280_temperature;BME280_humidity;BME280_pressure;Samples;Min_cycle;Max_cycle;Signal;HPM_P1;HPM_P2
2024/02/08 00:01:55;;;;;;;0.50;0.50;;;;;;;2.34;100.00;97971.00;5033234;28;20136;-59
2024/02/08 00:04:23;;;;;;;0.40;0.40;;;;;;;2.34;100.00;97963.06;5026106;28;20076;-59
2024/02/08 00:06:50;;;;;;;0.50;0.50;;;;;;;2.34;100.00;97964.91;5028188;28;20454;-59
2024/02/08 00:09:18;;;;;;;0.52;0.52;;;;;;;2.36;100.00;97963.66;5032919;28;20048;-58
2024/02/08 00:11:46;;;;;;;0.50;0.50;;;;;;;2.37;100.00;97960.00;5036270;28;20041;-59
2024/02/08 00:14:14;;;;;;;0.60;0.60;;;;;;;2.40;100.00;97965.84;5023274;28;20443;-58
2024/02/08 00:16:41;;;;;;;0.50;0.50;;;;;;;2.37;100.00;97964.47;5024839;28;20049;-58
2024/02/08 00:19:08;;;;;;;0.43;0.43;;;;;;;2.36;100.00;97976.88;5031511;28;20049;-59
2024/02/08 00:21:37;;;;;;;0.57;0.57;;;;;;;2.36;100.00;97968.94;5038789;28;20045;-58
2024/02/08 00:24:04;;;;;;;0.55;0.55;;;;;;;2.32;100.00;97977.53;5034894;28;20049;-59
2024/02/08 00:26:31;;;;;;;0.50;0.50;;;;;;;2.34;100.00;97965.72;5036364;28;20049;-59
2024/02/08 00:29:01;;;;;;;0.40;0.40;;;;;;;2.31;100.00;97968.00;5035263;28;20617;-58
2024/02/08 00:31:28;;;;;;;0.52;0.52;;;;;;;2.32;100.00;97966.97;5033850;28;20049;-59
2024/02/08 00:33:56;;;;;;;0.60;0.60;;;;;;;2.29;100.00;97968.19;5032925;28;20065;-59
2024/02/08 00:36:24;;;;;;;0.50;0.50;;;;;;;2.36;100.00;97961.00;5023836;28;20045;-58
2024/02/08 00:38:51;;;;;;;0.50;0.50;;;;;;;2.35;100.00;97956.75;5036386;28;20041;-58
2024/02/08 00:41:23;;;;;;;0.60;0.60;;;;;;;2.34;100.00;97957.78;5032422;28;20136;-58
2024/02/08 00:43:51;;;;;;;0.50;0.50;;;;;;;2.43;100.00;97963.59;5031946;28;20048;-58
2024/02/08 00:46:21;;;;;;;0.60;0.60;;;;;;;2.42;100.00;97966.44;5034365;28;20451;-58
2024/02/08 00:48:48;;;;;;;0.70;0.70;;;;;;;2.45;100.00;97955.44;5021135;28;20617;-58
2024/02/08 00:51:16;;;;;;;0.50;0.50;;;;;;;2.44;100.00;97951.97;5019795;28;20319;-58
2024/02/08 00:53:43;;;;;;;0.50;0.50;;;;;;;2.46;100.00;97962.34;5023986;28;20045;-58
2024/02/08 00:56:13;;;;;;;0.60;0.60;;;;;;;2.41;100.00;97959.56;5038614;28;20037;-58
2024/02/08 00:58:40;;;;;;;0.60;0.60;;;;;;;2.44;100.00;97959.09;5044009;28;20124;-59
2024/02/08 01:01:08;;;;;;;0.50;0.50;;;;;;;2.36;100.00;97953.06;5021471;28;20040;-58
2024/02/08 01:03:36;;;;;;;0.40;0.40;;;;;;;2.41;100.00;97959.56;5039221;28;20038;-59
2024/02/08 01:06:04;;;;;;;0.60;0.60;;;;;;;2.46;100.00;97957.06;5034939;28;20351;-58
2024/02/08 01:08:33;;;;;;;0.50;0.50;;;;;;;2.40;100.00;97955.28;5026744;28;20132;-59
2024/02/08 01:11:00;;;;;;;0.40;0.40;;;;;;;2.43;100.00;97957.50;5044058;28;20072;-58
2024/02/08 01:13:29;;;;;;;0.50;0.50;;;;;;;2.51;100.00;97962.47;5034721;28;20048;-59
2024/02/08 01:15:56;;;;;;;0.50;0.50;;;;;;;2.46;100.00;97951.75;5037196;28;20439;-58
2024/02/08 01:18:24;;;;;;;0.60;0.60;;;;;;;2.50;100.00;97950.31;5035675;28;20128;-58
2024/02/08 01:20:53;;;;;;;0.50;0.50;;;;;;;2.49;100.00;97949.47;5034875;28;20094;-58
2024/02/08 01:23:22;;;;;;;0.50;0.50;;;;;;;2.45;100.00;97952.81;5034794;28;20042;-58
2024/02/08 01:25:49;;;;;;;0.60;0.60;;;;;;;2.44;100.00;97953.81;5020744;28;20058;-58
2024/02/08 01:28:19;;;;;;;0.50;0.50;;;;;;;2.48;100.00;97960.28;5038967;28;20503;-59
2024/02/08 01:30:46;;;;;;;0.50;0.50;;;;;;;2.46;100.00;97963.16;5040603;28;20065;-58
2024/02/08 01:33:13;;;;;;;0.57;0.57;;;;;;;2.53;100.00;97955.16;5041431;28;20033;-59
2024/02/08 01:35:41;;;;;;;0.50;0.50;;;;;;;2.38;100.00;97958.97;5033097;28;20056;-59
2024/02/08 01:38:09;;;;;;;0.50;0.50;;;;;;;2.41;100.00;97951.63;5043364;28;20404;-59
2024/02/08 01:40:40;;;;;;;0.60;0.60;;;;;;;2.37;100.00;97949.41;5036505;28;20047;-58
2024/02/08 01:43:07;;;;;;;0.70;0.70;;;;;;;2.49;100.00;97952.13;5037131;28;20045;-58
2024/02/08 01:45:37;;;;;;;0.60;0.60;;;;;;;2.57;100.00;97953.66;5023560;28;20049;-58
2024/02/08 01:48:09;;;;;;;0.60;0.60;;;;;;;2.53;100.00;97948.00;5039810;28;20277;-58
2024/02/08 01:50:38;;;;;;;0.50;0.50;;;;;;;2.54;100.00;97948.81;5038617;28;20471;-59
2024/02/08 01:53:06;;;;;;;0.52;0.52;;;;;;;2.58;100.00;97955.28;5036361;28;20111;-58
2024/02/08 01:55:37;;;;;;;0.50;0.50;;;;;;;2.55;100.00;97955.72;5033421;28;20053;-58
2024/02/08 01:58:05;;;;;;;0.50;0.50;;;;;;;2.46;100.00;97962.34;5023404;28;20041;-58
2024/02/08 02:00:36;;;;;;;0.60;0.60;;;;;;;2.44;100.00;97954.63;5034328;28;20053;-59
2024/02/08 02:03:09;;;;;;;0.50;0.50;;;;;;;2.59;100.00;97964.81;5021209;28;20080;-58
2024/02/08 02:05:41;;;;;;;0.50;0.50;;;;;;;2.65;100.00;97963.94;5037195;28;20056;-58
2024/02/08 02:08:08;;;;;;;0.60;0.60;;;;;;;2.70;100.00;97972.03;5036383;28;20053;-59
2024/02/08 02:10:38;;;;;;;0.60;0.60;;;;;;;2.62;100.00;97966.22;5032812;28;21139;-59
2024/02/08 02:13:08;;;;;;;0.68;0.68;;;;;;;2.53;100.00;97969.16;5038602;28;20049;-59
2024/02/08 02:15:37;;;;;;;0.60;0.60;;;;;;;2.51;100.00;97967.78;5037854;28;20052;-59
2024/02/08 02:18:07;;;;;;;0.50;0.50;;;;;;;2.57;100.00;97969.53;5038900;28;20051;-58
2024/02/08 02:20:34;;;;;;;0.45;0.45;;;;;;;2.57;100.00;97965.06;5037083;28;20044;-58
2024/02/08 02:23:03;;;;;;;0.55;0.55;;;;;;;2.57;100.00;97958.94;5037808;28;20049;-58
2024/02/08 02:25:32;;;;;;;0.50;0.50;;;;;;;2.59;100.00;97954.25;5034750;28;20115;-59
2024/02/08 02:28:00;;;;;;;0.50;0.50;;;;;;;2.41;100.00;97943.69;5018697;28;20041;-58
2024/02/08 02:30:28;;;;;;;0.50;0.50;;;;;;;2.50;100.00;97947.66;5037872;28;20045;-59
2024/02/08 02:32:56;;;;;;;0.60;0.60;;;;;;;2.41;100.00;97954.25;5030079;28;20049;-58
2024/02/08 02:35:23;;;;;;;0.50;0.50;;;;;;;2.46;100.00;97947.28;5037198;28;20063;-58
2024/02/08 02:37:51;;;;;;;0.52;0.52;;;;;;;2.51;100.00;97943.97;5018270;28;20045;-59
2024/02/08 02:40:23;;;;;;;0.70;0.70;;;;;;;2.55;100.00;97942.50;5036011;28;20051;-58
2024/02/08 02:42:51;;;;;;;0.52;0.52;;;;;;;2.63;100.00;97936.91;5036613;28;20037;-59
2024/02/08 02:45:21;;;;;;;0.70;0.70;;;;;;;2.49;100.00;97924.88;5039022;28;20081;-58
2024/02/08 02:47:49;;;;;;;;;;;;;;;2.56;100.00;97930.88;5035430;28;20520;-58
2024/02/08 02:50:17;;;;;;;0.80;0.80;;;;;;;2.58;100.00;97924.34;5039715;28;19956;-58
2024/02/08 02:52:49;;;;;;;0.60;0.60;;;;;;;2.54;100.00;97925.81;5039596;28;20072;-59
2024/02/08 02:55:17;;;;;;;0.70;0.70;;;;;;;2.57;100.00;97928.03;5036608;28;20697;-58
2024/02/08 02:57:45;;;;;;;0.50;0.50;;;;;;;2.59;100.00;97919.84;5034794;28;20241;-58
2024/02/08 03:00:21;;;;;;;0.70;0.70;;;;;;;2.55;100.00;97918.69;5037054;28;20136;-58
2024/02/08 03:02:52;;;;;;;0.52;0.52;;;;;;;2.59;100.00;97915.38;5036018;28;20057;-59
2024/02/08 03:05:20;;;;;;;0.60;0.60;;;;;;;2.53;100.00;97915.47;5039611;28;20491;-59
2024/02/08 03:07:49;;;;;;;0.65;0.65;;;;;;;2.54;100.00;97923.16;5039895;28;20052;-59
2024/02/08 03:10:19;;;;;;;0.60;0.60;;;;;;;2.53;100.00;97926.03;5030016;28;20032;-58
2024/02/08 03:12:50;;;;;;;0.50;0.50;;;;;;;2.61;100.00;97915.16;5032256;28;20108;-59
2024/02/08 03:15:19;;;;;;;0.75;0.75;;;;;;;2.53;100.00;97915.47;5030968;28;20858;-59
2024/02/08 03:17:46;;;;;;;0.52;0.52;;;;;;;2.63;100.00;97921.03;5023638;28;20169;-59
2024/02/08 03:20:17;;;;;;;0.70;0.70;;;;;;;2.62;100.00;97915.97;5024175;28;20510;-59
2024/02/08 03:22:45;;;;;;;0.70;0.70;;;;;;;2.47;100.00;97918.97;5041067;28;20096;-58
2024/02/08 03:25:14;;;;;;;0.90;0.90;;;;;;;2.40;100.00;97912.97;5033661;28;20041;-58
2024/02/08 03:27:42;;;;;;;0.60;0.60;;;;;;;2.54;100.00;97917.88;5032365;28;20068;-58
2024/02/08 03:30:19;;;;;;;0.90;0.90;;;;;;;2.54;100.00;97930.28;5033907;28;20626;-58
2024/02/08 03:32:49;;;;;;;0.57;0.57;;;;;;;2.67;100.00;97927.50;5011234;28;20484;-59
2024/02/08 03:35:19;;;;;;;0.70;0.70;;;;;;;2.70;100.00;97913.81;5011953;28;20266;-58
2024/02/08 03:37:48;;;;;;;0.93;0.90;;;;;;;2.42;100.00;97910.91;5035412;28;20048;-58
2024/02/08 03:40:20;;;;;;;0.70;0.70;;;;;;;2.48;100.00;97910.03;5036153;28;20060;-59
2024/02/08 03:42:49;;;;;;;0.85;0.85;;;;;;;2.44;100.00;97912.31;5036587;28;20053;-58
2024/02/08 03:45:23;;;;;;;0.77;0.77;;;;;;;2.44;100.00;97917.59;5034748;28;20033;-58
2024/02/08 03:47:51;;;;;;;0.65;0.65;;;;;;;2.59;100.00;97919.84;5033928;28;20045;-58
2024/02/08 03:50:18;;;;;;;0.82;0.82;;;;;;;2.53;100.00;97915.47;5034345;28;20045;-58
2024/02/08 03:52:46;;;;;;;0.75;0.75;;;;;;;2.55;100.00;97908.13;5039625;28;20049;-58
2024/02/08 03:55:16;;;;;;;0.95;0.82;;;;;;;2.50;100.00;97910.63;5038553;28;20753;-58
2024/02/08 03:57:48;;;;;;;0.70;0.70;;;;;;;2.49;100.00;97912.44;5037736;28;20067;-58
2024/02/08 04:00:22;;;;;;;0.60;0.60;;;;;;;2.59;100.00;97914.56;5037955;28;20874;-58
2024/02/08 04:02:50;;;;;;;0.60;0.60;;;;;;;2.54;100.00;97912.59;5016691;28;20041;-59
2024/02/08 04:05:26;;;;;;;0.52;0.52;;;;;;;2.44;100.00;97912.31;5034775;28;20044;-59
2024/02/08 04:07:59;;;;;;;0.60;0.60;;;;;;;2.45;100.00;97907.84;5036203;28;20216;-59
2024/02/08 04:53:30;;;;;;;0.43;0.43;;;;;;;2.61;100.00;97901.13;5034829;28;20579;-58
2024/02/08 04:54:53;;;;;;;0.60;0.60;;;;;;;2.64;100.00;97904.13;5027420;28;20106;-59
2024/02/08 04:57:20;;;;;;;1.23;1.13;;;;;;;2.61;100.00;97895.84;5026345;28;20037;-58
2024/02/08 04:59:48;;;;;;;1.40;1.30;;;;;;;2.55;100.00;97892.25;5041557;28;20080;-58
2024/02/08 05:02:16;;;;;;;0.82;0.82;;;;;;;2.57;100.00;97904.22;5018465;28;20470;-59
2024/02/08 05:04:48;;;;;;;1.00;1.00;;;;;;;2.52;100.00;97897.97;5036451;28;20052;-58
2024/02/08 05:07:15;;;;;;;0.60;0.60;;;;;;;2.59;100.00;97898.69;5043066;28;20053;-59
2024/02/08 05:09:43;;;;;;;0.70;0.70;;;;;;;2.48;100.00;97896.81;5034227;28;20042;-59
2024/02/08 05:12:10;;;;;;;0.60;0.60;;;;;;;2.57;100.00;97898.09;5025462;28;20051;-59
2024/02/08 05:14:38;;;;;;;0.70;0.70;;;;;;;2.62;100.00;97892.97;5035557;28;20045;-58
2024/02/08 05:17:08;;;;;;;0.50;0.50;;;;;;;2.72;100.00;97895.06;5040177;28;20503;-59
2024/02/08 05:19:35;;;;;;;0.70;0.70;;;;;;;2.68;100.00;97892.06;5042650;28;20037;-59
2024/02/08 05:22:04;;;;;;;0.60;0.60;;;;;;;2.77;100.00;97890.72;5025201;28;20452;-59
2024/02/08 05:24:32;;;;;;;0.43;0.43;;;;;;;2.67;100.00;97890.47;5038222;28;20132;-59
2024/02/08 05:27:00;;;;;;;0.50;0.50;;;;;;;2.77;100.00;97888.09;5038553;28;20057;-59
2024/02/08 05:29:28;;;;;;;0.40;0.40;;;;;;;2.77;100.00;97893.38;5010298;28;20049;-59
2024/02/08 05:31:55;;;;;;;0.60;0.60;;;;;;;2.81;100.00;97886.59;5040357;28;20430;-59
2024/02/08 05:34:25;;;;;;;0.60;0.60;;;;;;;2.79;100.00;97885.19;5024426;28;20111;-59
2024/02/08 05:36:55;;;;;;;0.50;0.50;;;;;;;2.66;100.00;97882.75;5042393;28;20509;-59
2024/02/08 05:39:24;;;;;;;0.40;0.40;;;;;;;2.69;100.00;97883.09;5030318;28;20588;-58
2024/02/08 05:41:53;;;;;;;0.50;0.50;;;;;;;2.73;100.00;97883.47;5035170;28;20125;-58
2024/02/08 05:44:21;;;;;;;0.60;0.60;;;;;;;2.60;100.00;97881.81;5037164;28;20285;-59
2024/02/08 05:46:49;;;;;;;0.50;0.50;;;;;;;2.64;100.00;97880.31;5041054;28;20477;-58
2024/02/08 05:49:25;;;;;;;0.50;0.50;;;;;;;2.54;100.00;97874.75;5022368;28;20507;-58
2024/02/08 05:51:54;;;;;;;0.50;0.50;;;;;;;2.64;100.00;97866.28;5021752;28;20041;-58
2024/02/08 05:54:31;;;;;;;0.50;0.50;;;;;;;2.75;100.00;97871.63;5030696;28;20049;-58
2024/02/08 05:57:02;;;;;;;0.40;0.40;;;;;;;2.77;100.00;97858.97;5045510;28;20060;-59
2024/02/08 05:59:29;;;;;;;0.50;0.50;;;;;;;2.73;100.00;97852.50;5042898;28;20044;-58
2024/02/08 06:01:58;;;;;;;0.50;0.50;;;;;;;2.80;100.00;97849.78;5033960;28;20037;-58
2024/02/08 06:04:34;;;;;;;0.50;0.50;;;;;;;2.76;100.00;97851.25;5016026;28;20558;-58
2024/02/08 06:07:05;;;;;;;0.50;0.50;;;;;;;2.65;100.00;97847.56;5039807;28;20056;-58
2024/02/08 06:09:47;;;;;;;0.50;0.50;;;;;;;2.73;100.00;97844.56;5019667;28;20139;-58
2024/02/08 06:12:23;;;;;;;0.60;0.60;;;;;;;2.80;100.00;97850.59;5035628;28;20045;-58
2024/02/08 06:14:58;;;;;;;0.60;0.60;;;;;;;2.81;100.00;97865.41;5034695;28;20805;-58
2024/02/08 06:17:31;;;;;;;0.60;0.60;;;;;;;2.89;100.00;97863.47;5025680;28;20036;-58
2024/02/08 06:20:00;;;;;;;0.50;0.50;;;;;;;2.90;100.00;97868.56;5035165;28;20053;-58
2024/02/08 06:22:29;;;;;;;0.57;0.57;;;;;;;2.89;100.00;97866.13;5037444;28;20508;-58
2024/02/08 06:25:08;;;;;;;0.40;0.40;;;;;;;2.91;100.00;97875.47;5037347;28;20057;-58
2024/02/08 06:27:37;;;;;;;0.50;0.50;;;;;;;2.87;100.00;97869.03;5031578;28;20053;-59
2024/02/08 06:30:09;;;;;;;0.50;0.50;;;;;;;2.99;100.00;97869.03;5031176;28;20053;-58
2024/02/08 06:32:43;;;;;;;0.60;0.60;;;;;;;2.91;100.00;97864.06;5036356;28;20699;-58
2024/02/08 06:35:22;;;;;;;0.60;0.60;;;;;;;2.83;100.00;97862.56;5031436;28;20361;-58
2024/02/08 06:38:00;;;;;;;0.50;0.50;;;;;;;2.80;100.00;97871.75;5027545;28;20452;-59
2024/02/08 06:40:37;;;;;;;0.40;0.40;;;;;;;2.94;100.00;97868.91;5033335;28;20049;-59
2024/02/08 06:43:39;;;;;;;0.55;0.55;;;;;;;2.91;100.00;97869.38;5029159;28;20443;-59
2024/02/08 06:46:09;;;;;;;0.43;0.43;;;;;;;2.87;100.00;97865.53;5035657;28;20037;-58
2024/02/08 07:37:13;;;;;;;0.70;0.70;;;;;;;2.88;100.00;97861.88;5037040;28;20095;-58
2024/02/08 07:38:53;;;;;;;0.50;0.50;;;;;;;3.20;100.00;97822.69;5019090;28;20543;-59
2024/02/08 07:41:23;;;;;;;0.60;0.60;;;;;;;3.11;100.00;97816.91;5037975;28;20160;-59
2024/02/08 07:43:54;;;;;;;0.60;0.60;;;;;;;3.01;100.00;97816.69;5040628;28;20049;-59
2024/02/08 07:46:29;;;;;;;0.60;0.60;;;;;;;3.08;100.00;97813.94;5037184;28;20041;-59
2024/02/08 07:49:04;;;;;;;0.50;0.50;;;;;;;3.17;100.00;97808.06;5036917;28;20419;-58
2024/02/08 07:51:33;;;;;;;0.50;0.50;;;;;;;3.20;100.00;97809.47;5020244;28;21137;-59
2024/02/08 07:54:10;;;;;;;0.60;0.60;;;;;;;3.31;100.00;97815.78;5036314;28;20059;-60
2024/02/08 07:56:46;;;;;;;0.40;0.40;;;;;;;3.30;100.00;97819.47;5029097;28;20555;-59
2024/02/08 07:59:16;;;;;;;0.60;0.60;;;;;;;3.37;100.00;97818.34;5014050;28;20041;-60
2024/02/08 08:01:50;;;;;;;;;;;;;;;3.41;100.00;97814.16;5020321;28;20098;-60
2024/02/08 08:04:41;;;;;;;0.60;0.60;;;;;;;3.45;100.00;97809.22;5041307;28;19990;-60
2024/02/08 08:07:09;;;;;;;0.50;0.50;;;;;;;3.49;100.00;97802.41;5037390;28;20687;-59
2024/02/08 08:09:37;;;;;;;0.60;0.60;;;;;;;3.36;100.00;97802.66;5034896;28;20148;-59
2024/02/08 08:12:05;;;;;;;0.60;0.60;;;;;;;3.50;100.00;97801.41;5011116;28;20092;-60
2024/02/08 08:20:15;;;;;;;0.50;0.50;;;;;;;3.75;100.00;97795.03;5040681;28;20094;-58
2024/02/08 08:22:54;;;;;;;0.40;0.40;;;;;;;3.81;100.00;97786.13;5040913;28;20044;-59
2024/02/08 08:25:59;;;;;;;0.40;0.40;;;;;;;3.86;100.00;97794.19;5042787;28;20499;-58
2024/02/08 08:28:40;;;;;;;0.30;0.30;;;;;;;3.83;100.00;97786.72;5040304;28;20479;-60
2024/02/08 08:31:51;;;;;;;0.40;0.40;;;;;;;3.83;100.00;97781.41;5020938;28;20056;-58
2024/02/08 08:37:38;;;;;;;0.50;0.50;;;;;;;3.86;100.00;97773.00;5038463;28;20048;-62
2024/02/08 08:40:20;;;;;;;0.50;0.50;;;;;;;3.94;100.00;97775.25;5036078;28;20048;-59
2024/02/08 08:42:50;;;;;;;0.50;0.50;;;;;;;3.90;100.00;97766.19;5036008;28;20045;-59
2024/02/08 08:45:20;;;;;;;0.40;0.40;;;;;;;3.73;100.00;97758.16;5035159;28;20048;-58
2024/02/08 08:47:51;;;;;;;0.50;0.50;;;;;;;3.93;100.00;97757.75;5036438;28;20058;-59
2024/02/08 08:50:20;;;;;;;0.40;0.40;;;;;;;3.94;100.00;97751.41;5026028;28;20072;-59
2024/02/08 08:52:57;;;;;;;0.40;0.40;;;;;;;4.01;100.00;97751.28;5039523;28;20047;-59
2024/02/08 08:55:24;;;;;;;0.40;0.40;;;;;;;4.01;100.00;97757.38;5022525;28;20127;-59
2024/02/08 08:58:00;;;;;;;0.50;0.50;;;;;;;4.15;100.00;97755.25;5042934;28;20048;-59
2024/02/08 09:00:37;;;;;;;0.40;0.40;;;;;;;4.19;100.00;97758.25;5036446;28;20042;-59
2024/02/08 09:03:10;;;;;;;0.50;0.50;;;;;;;4.19;100.00;97759.03;5038732;28;20092;-60
2024/02/08 09:05:38;;;;;;;0.40;0.40;;;;;;;4.10;100.00;97755.19;5040396;28;20045;-59
2024/02/08 09:08:08;;;;;;;0.40;0.40;;;;;;;4.02;100.00;97758.19;5038322;28;20041;-59
2024/02/08 09:10:40;;;;;;;0.50;0.50;;;;;;;4.03;100.00;97755.31;5040225;28;20443;-59
2024/02/08 09:13:07;;;;;;;0.30;0.30;;;;;;;4.18;100.00;97759.28;5033490;28;20450;-59
2024/02/08 09:15:47;;;;;;;0.40;0.40;;;;;;;4.07;100.00;97756.44;5038706;28;20041;-59
2024/02/08 09:18:16;;;;;;;0.40;0.40;;;;;;;4.16;100.00;97748.09;5027143;28;20052;-59
2024/02/08 09:20:44;;;;;;;0.50;0.50;;;;;;;4.32;100.00;97748.16;5033398;28;20040;-59
2024/02/08 09:23:15;;;;;;;0.50;0.50;;;;;;;4.29;100.00;97743.34;5025233;28;20480;-59
2024/02/08 09:25:44;;;;;;;0.40;0.40;;;;;;;4.22;100.00;97736.53;5039104;28;20041;-59
2024/02/08 09:28:26;;;;;;;0.40;0.40;;;;;;;4.36;100.00;97740.50;5040389;28;20757;-59
2024/02/08 09:30:53;;;;;;;0.40;0.40;;;;;;;4.44;100.00;97723.41;5021452;28;20125;-59
2024/02/08 09:33:44;;;;;;;0.40;0.40;;;;;;;4.33;100.00;97727.75;5042178;28;20124;-59
2024/02/08 09:36:14;;;;;;;0.40;0.40;;;;;;;4.49;100.00;97719.00;5047327;28;20037;-58
2024/02/08 09:38:44;;;;;;;0.43;0.43;;;;;;;4.27;100.00;97716.25;5033921;28;20045;-58
2024/02/08 09:41:15;;;;;;;0.40;0.40;;;;;;;4.44;100.00;97710.97;5036452;28;20399;-58
2024/02/08 09:43:44;;;;;;;0.40;0.40;;;;;;;4.33;100.00;97717.13;5035884;28;20088;-59
2024/02/08 09:46:28;;;;;;;0.37;0.37;;;;;;;4.38;100.00;97711.91;5039053;28;20045;-58
2024/02/08 09:48:57;;;;;;;0.30;0.30;;;;;;;4.38;100.00;97700.50;5004393;28;20060;-59
2024/02/08 09:51:26;;;;;;;0.40;0.40;;;;;;;4.43;100.00;97701.38;5038602;28;20052;-59
2024/02/08 09:53:54;;;;;;;0.40;0.40;;;;;;;4.46;100.00;97695.59;5039551;28;20067;-59
2024/02/08 09:56:29;;;;;;;0.40;0.40;;;;;;;4.48;100.00;97690.84;5038391;28;20373;-59
2024/02/08 09:59:02;;;;;;;0.40;0.40;;;;;;;4.34;100.00;97694.84;5019462;28;20120;-59
2024/02/08 10:01:35;;;;;;;0.40;0.40;;;;;;;4.25;100.00;97683.84;5037201;28;20049;-59
2024/02/08 10:04:05;;;;;;;0.40;0.40;;;;;;;4.40;100.00;97691.25;5038466;28;20049;-59
2024/02/08 10:06:45;;;;;;;0.38;0.38;;;;;;;4.40;100.00;97685.94;5040545;28;20055;-59
2024/02/08 10:11:58;;;;;;;0.50;0.50;;;;;;;4.24;100.00;97681.41;5032627;28;20048;-59
2024/02/08 10:14:25;;;;;;;0.50;0.50;;;;;;;4.30;100.00;97673.31;5040513;28;20049;-60
2024/02/08 10:16:58;;;;;;;0.50;0.50;;;;;;;4.27;100.00;97660.53;5041099;28;20130;-58
2024/02/08 10:19:28;;;;;;;0.40;0.40;;;;;;;4.32;100.00;97668.59;5034776;28;20106;-58
2024/02/08 10:22:01;;;;;;;0.50;0.50;;;;;;;4.56;100.00;97654.34;5032872;28;20048;-58
2024/02/08 10:24:44;;;;;;;0.45;0.45;;;;;;;4.54;100.00;97644.81;5031861;28;20041;-58
2024/02/08 10:27:19;;;;;;;0.40;0.40;;;;;;;4.38;100.00;97658.06;5036569;28;20066;-58
2024/02/08 10:29:47;;;;;;;0.35;0.35;;;;;;;4.38;100.00;97655.41;5037843;28;20048;-59
2024/02/08 10:32:18;;;;;;;0.40;0.40;;;;;;;4.36;100.00;97639.72;5028433;28;20041;-59
2024/02/08 10:34:45;;;;;;;0.40;0.40;;;;;;;4.18;100.00;97640.75;5032356;28;20052;-59
2024/02/08 10:37:46;;;;;;;0.50;0.50;;;;;;;4.39;100.00;97631.28;5025611;28;20098;-58
2024/02/08 10:40:28;;;;;;;0.50;0.50;;;;;;;4.55;100.00;97629.69;5039284;28;20044;-58
2024/02/08 10:42:53;;;;;;;0.50;0.50;;;;;;;4.56;100.00;97619.84;5030134;28;20041;-58
2024/02/08 10:45:21;;;;;;;0.40;0.40;;;;;;;4.53;100.00;97611.34;5032364;28;20504;-59
2024/02/08 10:47:48;;;;;;;0.50;0.50;;;;;;;4.41;100.00;97618.56;5020408;28;20049;-58
2024/02/08 10:50:20;;;;;;;0.40;0.40;;;;;;;4.52;100.00;97599.13;5040598;28;20094;-59
2024/02/08 10:52:51;;;;;;;0.40;0.40;;;;;;;4.68;100.00;97586.06;5037639;28;20128;-60
2024/02/08 10:55:19;;;;;;;0.50;0.50;;;;;;;4.82;100.00;97597.94;5033168;28;20095;-59
2024/02/08 10:58:19;;;;;;;0.35;0.35;;;;;;;4.74;100.00;97575.28;5034378;28;20057;-59
2024/02/08 11:01:06;;;;;;;0.40;0.40;;;;;;;4.78;100.00;97586.22;5017611;28;20110;-59
2024/02/08 11:03:42;;;;;;;0.40;0.40;;;;;;;4.73;100.00;97578.19;5035676;28;20152;-59
2024/02/08 11:06:26;;;;;;;0.43;0.43;;;;;;;4.67;100.00;97563.25;5036846;28;20667;-59
2024/02/08 11:09:09;;;;;;;0.38;0.38;;;;;;;4.78;100.00;97561.53;5038077;28;20049;-59
2024/02/08 11:11:39;;;;;;;0.32;0.32;;;;;;;4.59;100.00;97555.69;5024714;28;20077;-59
2024/02/08 11:14:08;;;;;;;0.43;0.43;;;;;;;4.87;100.00;97555.53;5019119;28;20114;-59
2024/02/08 11:16:37;;;;;;;0.40;0.40;;;;;;;4.91;100.00;97543.38;5032605;28;20041;-59
2024/02/08 11:19:05;;;;;;;0.40;0.40;;;;;;;4.79;100.00;97550.63;5033468;28;20504;-59
2024/02/08 11:21:43;;;;;;;0.47;0.47;;;;;;;4.75;100.00;97538.94;5035127;28;20041;-59
2024/02/08 11:24:13;;;;;;;0.50;0.50;;;;;;;5.13;100.00;97529.28;5035039;28;20531;-59
2024/02/08 11:26:54;;;;;;;0.40;0.40;;;;;;;5.13;100.00;97537.25;5036934;28;20045;-59
2024/02/08 11:29:21;;;;;;;0.40;0.40;;;;;;;5.16;100.00;97512.84;5039881;28;20099;-59
2024/02/08 11:31:49;;;;;;;0.35;0.35;;;;;;;5.15;100.00;97501.44;5033057;28;20041;-60
2024/02/08 11:34:24;;;;;;;0.30;0.30;;;;;;;5.30;100.00;97507.97;5040316;28;20118;-60
2024/02/08 11:36:53;;;;;;;0.40;0.40;;;;;;;5.36;100.00;97499.78;5028974;28;20128;-59
2024/02/08 11:39:30;;;;;;;0.30;0.30;;;;;;;5.52;100.00;97510.56;5041535;28;20510;-60
2024/02/08 11:42:00;;;;;;;0.40;0.40;;;;;;;5.51;100.00;97508.94;5031463;28;20081;-58
2024/02/08 11:44:29;;;;;;;0.25;0.25;;;;;;;5.40;100.00;97508.84;5036583;28;20041;-57
2024/02/08 11:46:59;;;;;;;0.22;0.22;;;;;;;5.56;100.00;97506.34;5039021;28;20099;-59
2024/02/08 11:49:35;;;;;;;0.38;0.38;;;;;;;5.56;100.00;97496.50;5037605;28;20068;-58
2024/02/08 11:52:06;;;;;;;0.40;0.40;;;;;;;5.65;100.00;97498.72;5033363;28;20554;-58
2024/02/08 11:54:37;;;;;;;0.30;0.30;;;;;;;5.64;100.00;97492.59;5032628;28;20045;-58
2024/02/08 11:57:05;;;;;;;0.40;0.40;;;;;;;5.50;100.00;97478.94;5038103;28;20068;-58
2024/02/08 11:59:36;;;;;;;0.40;0.40;;;;;;;5.50;100.00;97457.66;5032558;28;20053;-58
2024/02/08 12:02:07;;;;;;;0.35;0.35;;;;;;;5.49;100.00;97468.53;5031555;28;20131;-58
2024/02/08 12:04:36;;;;;;;0.40;0.40;;;;;;;5.62;100.00;97484.09;5032857;28;20041;-58
2024/02/08 12:07:07;;;;;;;0.30;0.30;;;;;;;5.75;100.00;97466.91;5034947;28;20544;-59
2024/02/08 12:09:36;;;;;;;0.30;0.30;;;;;;;5.80;100.00;97458.97;5037740;28;20507;-59
2024/02/08 12:12:04;;;;;;;0.40;0.40;;;;;;;5.83;100.00;97453.94;5022212;28;20064;-59
2024/02/08 12:14:31;;;;;;;0.50;0.50;;;;;;;5.88;100.00;97460.34;5035311;28;20041;-59
2024/02/08 12:16:59;;;;;;;0.30;0.30;;;;;;;5.96;100.00;97441.28;5038039;28;20045;-58
2024/02/08 12:19:28;;;;;;;0.40;0.40;;;;;;;5.77;100.00;97436.34;5019544;28;20687;-58
2024/02/08 12:21:59;;;;;;;0.40;0.40;;;;;;;6.02;100.00;97432.31;5033028;28;20084;-59
2024/02/08 12:24:31;;;;;;;0.40;0.40;;;;;;;5.78;100.00;97435.28;5016815;28;20081;-60
2024/02/08 12:27:05;;;;;;;0.28;0.28;;;;;;;6.10;100.00;97429.16;5040560;28;20557;-59
2024/02/08 12:29:32;;;;;;;0.30;0.30;;;;;;;6.32;100.00;97422.91;5035496;28;20132;-59
2024/02/08 12:31:59;;;;;;;0.30;0.30;;;;;;;6.26;100.00;97420.22;5036183;28;20527;-59
2024/02/08 12:34:31;;;;;;;0.32;0.32;;;;;;;6.19;100.00;97419.63;5030787;28;20136;-59
2024/02/08 12:37:00;;;;;;;0.30;0.30;;;;;;;6.21;100.00;97428.13;5039145;28;20136;-59
2024/02/08 12:39:28;;;;;;;0.30;0.30;;;;;;;6.24;100.00;97421.50;5033131;28;20075;-59
2024/02/08 12:41:55;;;;;;;0.30;0.30;;;;;;;6.19;100.00;97427.63;5015988;28;20110;-59
2024/02/08 12:44:25;;;;;;;0.40;0.40;;;;;;;6.25;100.00;97418.59;5032768;28;20115;-59
2024/02/08 12:46:55;;;;;;;0.40;0.40;;;;;;;6.23;100.00;97428.69;5033485;28;20416;-59
2024/02/08 12:49:24;;;;;;;0.40;0.40;;;;;;;6.35;100.00;97415.19;5002071;28;20064;-59
2024/02/08 12:51:56;;;;;;;0.20;0.20;;;;;;;6.40;100.00;97412.53;4993739;28;20035;-60
2024/02/08 12:54:25;;;;;;;0.30;0.30;;;;;;;6.13;100.00;97409.22;4997102;28;20106;-59
2024/02/08 12:57:07;;;;;;;0.40;0.40;;;;;;;6.13;100.00;97404.69;4998547;28;20038;-59
2024/02/08 12:59:37;;;;;;;0.30;0.30;;;;;;;6.28;100.00;97401.31;5000574;28;20072;-59
2024/02/08 13:02:08;;;;;;;0.30;0.30;;;;;;;6.18;100.00;97396.75;5000865;28;20050;-59
2024/02/08 13:04:43;;;;;;;0.40;0.40;;;;;;;6.25;100.00;97383.22;5000790;28;20052;-59
2024/02/08 13:07:14;;;;;;;0.35;0.35;;;;;;;6.58;100.00;97368.69;4998845;28;20107;-60
2024/02/08 13:09:43;;;;;;;0.40;0.40;;;;;;;6.76;100.00;97363.94;5001106;28;20108;-59
2024/02/08 13:12:17;;;;;;;0.40;0.40;;;;;;;6.81;100.00;97366.63;4999484;28;20508;-60
2024/02/08 13:14:57;;;;;;;0.40;0.40;;;;;;;6.86;100.00;97369.28;5010178;28;20038;-60
2024/02/08 13:17:26;;;;;;;0.30;0.30;;;;;;;6.89;100.00;97372.25;4990603;28;20038;-59
2024/02/08 13:19:54;;;;;;;0.38;0.38;;;;;;;7.04;100.00;97371.47;4998027;28;20037;-59
2024/02/08 13:22:24;;;;;;;0.40;0.40;;;;;;;6.84;100.00;97364.25;4998580;28;20033;-59
2024/02/08 13:24:51;;;;;;;0.30;0.30;;;;;;;6.80;100.00;97354.38;4996937;28;20129;-59
2024/02/08 13:27:24;;;;;;;0.30;0.30;;;;;;;6.73;100.00;97369.81;4996013;28;20040;-59
2024/02/08 13:29:53;;;;;;;0.40;0.40;;;;;;;6.81;100.00;97350.63;4994970;28;20054;-59
2024/02/08 13:32:24;;;;;;;0.20;0.20;;;;;;;6.96;100.00;97361.31;4999685;28;20064;-59
2024/02/08 13:34:52;;;;;;;0.35;0.35;;;;;;;6.80;100.00;97349.84;4993314;28;20157;-59